Terminal Aerodrome Forecast
Issued by NWS

Home | Current Version | Previous Version | Text Only | Print | Product List | Glossary On
Versions: 1 2 3 4 5 6 7 8 9 10 11 12 13 14 15 16 17 18 19 20 21 22 23 24 25 26 27 28 29 30 31 32 33 34 35 36
000
FTUS42 KCAE 111700
TAFCUB
TAF
KCUB 111724Z 1118/1218 VRB05KT P6SM VCSH OVC020
     FM112000 VRB05KT P6SM SCT030 BKN050
     FM120900 00000KT 6SM BR SCT010
     FM121100 00000KT 4SM BR BKN010
     FM121500 VRB05KT P6SM SCT030=

USA.gov is the U.S. government's official web portal to all federal, state and local government web resources and services.